createdAt,value
2018-10-16T00:01:08.950Z,8.17
2018-10-16T00:06:13.800Z,8.60
2018-10-16T00:11:17.482Z,8.60
2018-10-16T00:16:21.819Z,8.63
2018-10-16T00:21:25.795Z,9.37
2018-10-16T00:26:30.295Z,8.50
2018-10-16T00:31:33.935Z,7.83
2018-10-16T00:36:38.613Z,8.70
2018-10-16T00:41:42.700Z,8.00
2018-10-16T00:46:46.324Z,8.97
2018-10-16T00:51:49.930Z,8.23
2018-10-16T00:56:53.981Z,8.10
2018-10-16T01:01:57.587Z,8.57
2018-10-16T01:07:01.164Z,8.87
2018-10-16T01:12:05.319Z,8.00
2018-10-16T01:17:09.181Z,8.20
2018-10-16T01:22:12.763Z,7.97
2018-10-16T01:27:16.744Z,8.60
2018-10-16T01:32:21.301Z,8.50
2018-10-16T01:37:26.417Z,9.47
2018-10-16T01:42:30.420Z,8.60
2018-10-16T01:47:34.028Z,8.07
2018-10-16T01:52:38.366Z,8.80
2018-10-16T01:57:41.964Z,7.60
2018-10-16T02:02:46.457Z,8.27
2018-10-16T02:07:49.937Z,8.23
2018-10-16T02:12:53.512Z,8.47
2018-10-16T02:17:57.148Z,8.53
2018-10-16T02:23:01.439Z,8.70
2018-10-16T02:28:05.530Z,8.03
2018-10-16T02:33:09.129Z,8.53
2018-10-16T02:38:13.313Z,8.60
2018-10-16T02:43:16.948Z,8.80
2018-10-16T02:48:20.521Z,9.67
2018-10-16T02:53:26.428Z,8.27
2018-10-16T02:58:29.996Z,8.27
2018-10-16T03:03:35.807Z,8.37
2018-10-16T03:08:39.400Z,8.80
2018-10-16T03:13:42.980Z,8.47
2018-10-16T03:18:46.892Z,9.30
2018-10-16T03:23:50.471Z,8.83
2018-10-16T03:28:54.687Z,8.43
2018-10-16T03:33:58.302Z,8.70
2018-10-16T03:39:04.601Z,8.47
2018-10-16T03:44:10.682Z,8.47
2018-10-16T03:49:14.282Z,8.03
2018-10-16T03:54:18.098Z,9.10
2018-10-16T03:59:21.686Z,8.73
2018-10-16T04:04:25.328Z,8.23
2018-10-16T04:09:28.896Z,9.67
2018-10-16T04:14:32.545Z,8.43
2018-10-16T04:19:36.145Z,8.80
2018-10-16T04:24:40.488Z,8.03
2018-10-16T04:29:44.599Z,8.83
2018-10-16T04:34:48.679Z,9.17
2018-10-16T04:39:52.335Z,9.57
2018-10-16T04:44:56.190Z,8.80
2018-10-16T04:50:00.404Z,9.13
2018-10-16T04:55:04.464Z,9.53
2018-10-16T05:00:08.972Z,9.07
2018-10-16T05:05:18.549Z,9.93
2018-10-16T05:10:22.517Z,8.50
2018-10-16T05:15:34.869Z,8.30
2018-10-16T05:20:38.456Z,8.90
2018-10-16T05:25:42.026Z,9.80
2018-10-16T05:30:45.679Z,9.00
2018-10-16T05:35:49.274Z,8.17
2018-10-16T05:40:53.233Z,8.60
2018-10-16T05:45:56.840Z,8.90
2018-10-16T05:51:00.433Z,9.20
2018-10-16T05:56:06.576Z,9.60
2018-10-16T06:01:10.199Z,9.50
2018-10-16T06:06:13.970Z,8.87
2018-10-16T06:11:17.559Z,10.13
2018-10-16T06:16:21.115Z,9.17
2018-10-16T06:21:25.000Z,9.80
2018-10-16T06:26:28.679Z,9.83
2018-10-16T06:31:32.264Z,10.33
2018-10-16T06:36:35.934Z,9.80
2018-10-16T06:41:39.594Z,9.43
2018-10-16T06:46:43.440Z,9.70
2018-10-16T06:51:46.935Z,9.60
2018-10-16T06:56:50.538Z,10.73
2018-10-16T07:01:54.132Z,10.00
2018-10-16T07:06:58.026Z,9.87
2018-10-16T07:12:01.492Z,10.20
2018-10-16T07:17:06.177Z,10.60
2018-10-16T07:22:12.512Z,11.60
2018-10-16T07:27:17.121Z,10.57
2018-10-16T07:32:21.485Z,11.00
2018-10-16T07:37:26.166Z,11.47
2018-10-16T07:42:29.772Z,12.20
2018-10-16T07:47:33.481Z,11.57
2018-10-16T07:52:37.420Z,12.20
2018-10-16T07:57:41.894Z,11.30
2018-10-16T08:02:46.232Z,11.83
2018-10-16T08:07:49.787Z,12.50
2018-10-16T08:12:54.061Z,12.97
2018-10-16T08:17:57.709Z,13.20
2018-10-16T08:23:01.316Z,13.53
2018-10-16T08:28:05.017Z,13.33
2018-10-16T08:33:08.639Z,13.20
2018-10-16T08:40:20.525Z,12.50
2018-10-16T08:45:35.281Z,13.17
2018-10-16T08:50:50.669Z,12.03
2018-10-16T08:55:54.541Z,11.57
2018-10-16T09:00:58.112Z,11.50
2018-10-16T09:06:01.701Z,9.50
2018-10-16T09:11:05.334Z,10.47
2018-10-16T09:16:09.360Z,9.13
2018-10-16T09:21:13.043Z,9.13
2018-10-16T09:26:19.654Z,9.73
2018-10-16T09:31:24.248Z,8.60
2018-10-16T09:36:28.627Z,8.70
2018-10-16T09:41:32.228Z,8.73
2018-10-16T09:46:35.924Z,11.07
2018-10-16T09:51:41.410Z,8.80
2018-10-16T09:56:45.047Z,9.07
2018-10-16T10:01:52.841Z,9.80
2018-10-16T10:06:56.687Z,10.50
2018-10-16T10:12:00.280Z,10.30
2018-10-16T10:17:03.924Z,10.23
2018-10-16T10:22:07.559Z,9.77
2018-10-16T10:27:12.106Z,10.10
2018-10-16T10:32:15.672Z,10.37
2018-10-16T10:37:19.245Z,10.67
2018-10-16T10:42:23.681Z,10.40
2018-10-16T10:47:27.535Z,10.10
2018-10-16T10:52:31.198Z,10.20
2018-10-16T10:57:35.280Z,9.60
2018-10-16T11:02:39.803Z,10.13
2018-10-16T11:07:49.090Z,10.17
2018-10-16T11:12:52.712Z,10.20
2018-10-16T11:17:56.406Z,9.60
2018-10-16T11:23:00.356Z,10.03
2018-10-16T11:28:04.230Z,9.27
2018-10-16T11:33:07.864Z,8.67
2018-10-16T11:38:11.775Z,9.30
2018-10-16T11:43:15.652Z,8.50
2018-10-16T11:48:19.780Z,8.30
2018-10-16T11:53:23.363Z,9.20
2018-10-16T11:58:26.912Z,8.90
2018-10-16T12:03:30.503Z,9.57
2018-10-16T12:08:34.348Z,8.43
2018-10-16T12:13:37.945Z,9.27
2018-10-16T12:19:16.719Z,8.40
2018-10-16T12:24:20.275Z,8.07
2018-10-16T12:29:23.861Z,9.20
2018-10-16T12:34:27.988Z,8.07
2018-10-16T12:39:31.603Z,8.90
2018-10-16T12:44:35.161Z,8.47
2018-10-16T12:49:38.984Z,8.60
2018-10-16T12:54:44.329Z,8.47
2018-10-16T12:59:47.896Z,7.23
2018-10-16T13:04:51.229Z,7.30
2018-10-16T13:15:06.900Z,7.70
2018-10-16T13:20:11.556Z,8.30
2018-10-16T13:25:15.773Z,8.07
2018-10-16T13:30:19.695Z,7.60
2018-10-16T13:35:23.571Z,7.70
2018-10-16T13:40:28.134Z,7.50
2018-10-16T13:50:40.900Z,7.50
2018-10-16T13:55:45.318Z,7.70
2018-10-16T14:00:49.173Z,7.70
2018-10-16T14:05:53.091Z,7.63
2018-10-16T14:10:56.992Z,7.97
2018-10-16T14:16:01.472Z,7.00
2018-10-16T14:21:05.560Z,7.27
2018-10-16T14:26:11.307Z,7.13
2018-10-16T14:31:15.272Z,7.60
2018-10-16T14:36:18.914Z,6.30
2018-10-16T14:41:22.547Z,7.27
2018-10-16T14:46:26.074Z,8.10
2018-10-16T14:51:33.289Z,6.40
2018-10-16T14:56:36.887Z,6.47
2018-10-16T15:01:40.993Z,7.13
2018-10-16T15:06:44.698Z,6.93
2018-10-16T15:11:49.165Z,7.27
2018-10-16T15:16:52.796Z,6.93
2018-10-16T15:21:56.539Z,6.90
2018-10-16T15:27:04.160Z,7.23
2018-10-16T15:32:07.838Z,6.37
2018-10-16T15:37:11.436Z,7.90
2018-10-16T15:42:15.070Z,6.93
2018-10-16T15:47:18.938Z,8.40
2018-10-16T15:52:22.496Z,9.10
2018-10-16T15:57:26.599Z,6.80
2018-10-16T16:02:30.997Z,6.87
2018-10-16T16:07:34.966Z,8.17
2018-10-16T16:12:38.772Z,7.20
2018-10-16T16:17:43.251Z,7.20
2018-10-16T16:22:48.029Z,7.80
2018-10-16T16:27:53.330Z,7.33
2018-10-16T16:32:57.296Z,7.87
2018-10-16T16:38:01.287Z,7.73
2018-10-16T16:43:05.022Z,8.07
2018-10-16T16:48:10.717Z,8.13
2018-10-16T16:53:14.398Z,8.13
2018-10-16T16:58:18.642Z,8.63
2018-10-16T17:03:22.638Z,7.87
2018-10-16T17:08:26.258Z,8.17
2018-10-16T17:13:30.016Z,8.80
2018-10-16T17:18:33.701Z,8.63
2018-10-16T17:23:38.779Z,9.37
2018-10-16T17:28:42.451Z,9.23
2018-10-16T17:33:46.369Z,9.67
2018-10-16T17:38:49.946Z,8.90
2018-10-16T17:43:53.783Z,8.90
2018-10-16T17:48:57.435Z,10.10
2018-10-16T17:54:01.256Z,10.03
2018-10-16T17:59:04.882Z,9.70
2018-10-16T18:04:08.499Z,9.80
2018-10-16T18:09:12.214Z,10.27
2018-10-16T18:14:15.920Z,10.00
2018-10-16T18:19:20.216Z,9.37
2018-10-16T18:24:24.069Z,9.20
2018-10-16T18:29:28.100Z,9.67
2018-10-16T18:34:33.538Z,10.17
2018-10-16T18:39:37.175Z,10.10
2018-10-16T18:44:41.205Z,9.90
2018-10-16T18:49:44.788Z,10.23
2018-10-16T18:54:48.484Z,9.87
2018-10-16T18:59:52.086Z,10.30
2018-10-16T19:04:55.652Z,10.37
2018-10-16T19:09:59.900Z,10.10
2018-10-16T19:15:04.306Z,9.93
2018-10-16T19:20:09.418Z,10.03
2018-10-16T19:25:14.476Z,10.80
2018-10-16T19:30:18.553Z,10.33
2018-10-16T19:35:23.000Z,10.70
2018-10-16T19:40:26.780Z,10.77
2018-10-16T19:45:30.417Z,12.10
2018-10-16T19:50:34.051Z,12.57
2018-10-16T19:55:37.816Z,11.77
2018-10-16T20:00:41.428Z,11.23
2018-10-16T20:05:46.137Z,11.57
2018-10-16T20:10:49.842Z,10.10
2018-10-16T20:15:53.654Z,10.20
2018-10-16T20:20:57.424Z,11.40
2018-10-16T20:26:01.288Z,10.90
2018-10-16T20:31:05.289Z,10.87
2018-10-16T20:36:08.999Z,10.80
2018-10-16T20:41:14.172Z,10.80
2018-10-16T20:46:17.791Z,10.80
2018-10-16T20:51:21.363Z,10.17
2018-10-16T20:56:24.975Z,11.13
2018-10-16T21:01:31.891Z,11.10
2018-10-16T21:06:36.403Z,12.87
2018-10-16T21:11:39.907Z,12.80
2018-10-16T21:16:44.726Z,11.40
2018-10-16T21:21:51.554Z,11.60
2018-10-16T21:27:09.057Z,10.80
2018-10-16T21:32:12.698Z,10.50
2018-10-16T21:37:16.893Z,10.07
2018-10-16T21:42:21.432Z,10.83
2018-10-16T21:47:25.007Z,11.03
2018-10-16T21:52:28.718Z,9.87
2018-10-16T21:57:32.576Z,10.70
2018-10-16T22:02:41.816Z,10.60
2018-10-16T22:07:45.430Z,10.23
2018-10-16T22:12:49.651Z,9.60
2018-10-16T22:17:53.271Z,10.80
2018-10-16T22:22:57.218Z,10.50
2018-10-16T22:28:00.868Z,10.60
2018-10-16T22:33:04.799Z,10.53
2018-10-16T22:38:09.158Z,11.27
2018-10-16T22:43:17.595Z,10.60
2018-10-16T22:48:21.162Z,9.93
2018-10-16T22:53:24.725Z,11.10
2018-10-16T22:58:29.028Z,10.47
2018-10-16T23:03:32.598Z,10.60
2018-10-16T23:08:36.155Z,10.10
2018-10-16T23:13:39.708Z,9.90
2018-10-16T23:18:43.554Z,9.47
2018-10-16T23:23:47.170Z,10.17
2018-10-16T23:28:50.989Z,9.37
2018-10-16T23:33:55.200Z,9.83
2018-10-16T23:38:58.823Z,10.03
2018-10-16T23:44:02.409Z,8.97
2018-10-16T23:49:06.743Z,9.70
2018-10-16T23:54:10.604Z,9.80
2018-10-16T23:59:14.233Z,10.27
